Terminal Aerodrome Forecast
Issued by NWS

Home | Current Version | Previous Version | Text Only | Print | Product List | Glossary On
Versions: 1 2 3 4 5 6 7 8 9 10 11 12 13 14 15 16 17 18
000
FTUS41 KBTV 270801 AAB
TAFMPV
TAF AMD
KMPV 270801Z 2708/2806 VRB03KT 2SM BR SCT001 OVC035
      TEMPO 2708/2711 3/4SM BR BKN001
     FM271300 VRB03KT 4SM BR OVC025
     FM271500 32006KT P6SM BKN025=

USA.gov is the U.S. government's official web portal to all federal, state and local government web resources and services.